Time;durP1;ratioP1;P1;durP2;ratioP2;P2;SDS_P1;SDS_P2;PMS_P1;PMS_P2;Temp;Humidity;BMP_temperature;BMP_pressure;BME280_temperature;BME280_humidity;BME280_pressure;Samples;Min_cycle;Max_cycle;Signal;HPM_P1;HPM_P2
2021/01/17 00:02:06;;;;;;;44.60;20.97;;;;;;;;;;5098430;28;20487;-68
2021/01/17 00:04:32;;;;;;;46.70;23.23;;;;;;;;;;5107701;27;20450;-69
2021/01/17 00:06:59;;;;;;;43.00;21.30;;;;;;;;;;5098543;27;20462;-68
2021/01/17 00:09:26;;;;;;;49.60;24.17;;;;;;;;;;5104810;27;20470;-68
2021/01/17 00:11:52;;;;;;;45.93;22.27;;;;;;;;;;5102628;28;21222;-69
2021/01/17 00:14:20;;;;;;;38.63;19.20;;;;;;;;;;5103167;28;20995;-69
2021/01/17 00:16:46;;;;;;;47.40;23.47;;;;;;;;;;5103215;28;20890;-68
2021/01/17 00:19:13;;;;;;;47.33;22.60;;;;;;;;;;5112103;28;20467;-68
2021/01/17 00:21:43;;;;;;;38.83;19.97;;;;;;;;;;5100862;28;20490;-69
2021/01/17 00:24:10;;;;;;;49.50;23.20;;;;;;;;;;5107543;28;20455;-68
2021/01/17 00:26:37;;;;;;;48.13;21.70;;;;;;;;;;5108507;28;20443;-69
2021/01/17 00:29:04;;;;;;;46.33;22.73;;;;;;;;;;5106561;27;20447;-69
2021/01/17 00:31:35;;;;;;;42.53;23.23;;;;;;;;;;5104960;27;20439;-69
2021/01/17 00:34:02;;;;;;;41.50;23.70;;;;;;;;;;5101375;28;20451;-69
2021/01/17 00:36:28;;;;;;;41.00;21.13;;;;;;;;;;5105885;28;20526;-68
2021/01/17 00:38:55;;;;;;;37.50;20.10;;;;;;;;;;5099353;28;20542;-69
2021/01/17 00:41:29;;;;;;;47.93;20.97;;;;;;;;;;5109506;27;20440;-69
2021/01/17 00:43:56;;;;;;;46.90;22.13;;;;;;;;;;5099433;28;20463;-68
2021/01/17 00:46:23;;;;;;;36.43;21.17;;;;;;;;;;5107661;27;20440;-68
2021/01/17 00:48:50;;;;;;;39.83;22.17;;;;;;;;;;5113717;27;20503;-69
2021/01/17 00:51:17;;;;;;;52.27;23.00;;;;;;;;;;5104622;28;20872;-69
2021/01/17 00:53:43;;;;;;;41.13;21.00;;;;;;;;;;5106261;27;20451;-69
2021/01/17 00:56:10;;;;;;;49.87;22.10;;;;;;;;;;5097799;27;20474;-68
2021/01/17 00:58:36;;;;;;;44.37;22.83;;;;;;;;;;5108717;27;20461;-68
2021/01/17 01:01:03;;;;;;;40.50;21.67;;;;;;;;;;5102414;28;20482;-68
2021/01/17 01:03:30;;;;;;;42.67;22.10;;;;;;;;;;5104421;28;20475;-68
2021/01/17 01:05:57;;;;;;;41.17;22.13;;;;;;;;;;5100275;28;20830;-68
2021/01/17 01:08:24;;;;;;;39.07;20.73;;;;;;;;;;5110816;28;20455;-69
2021/01/17 01:10:50;;;;;;;44.13;22.80;;;;;;;;;;5107432;28;20482;-69
2021/01/17 01:13:17;;;;;;;51.80;21.57;;;;;;;;;;5105820;28;20461;-68
2021/01/17 01:15:44;;;;;;;37.03;21.23;;;;;;;;;;5103061;28;20462;-69
2021/01/17 01:18:10;;;;;;;49.50;22.00;;;;;;;;;;5111522;28;20435;-68
2021/01/17 01:20:37;;;;;;;45.20;23.80;;;;;;;;;;5106044;28;20987;-69
2021/01/17 01:23:05;;;;;;;49.73;24.20;;;;;;;;;;5107578;28;20485;-68
2021/01/17 01:25:32;;;;;;;53.27;21.93;;;;;;;;;;5098258;28;20436;-68
2021/01/17 01:27:58;;;;;;;46.37;23.43;;;;;;;;;;5108164;28;20459;-69
2021/01/17 01:30:25;;;;;;;50.93;22.20;;;;;;;;;;5102120;28;20869;-68
2021/01/17 01:32:52;;;;;;;45.70;23.70;;;;;;;;;;5108306;28;20453;-69
2021/01/17 01:35:18;;;;;;;49.20;24.10;;;;;;;;;;5108773;28;20439;-68
2021/01/17 01:37:45;;;;;;;48.90;24.10;;;;;;;;;;5104835;28;20455;-68
2021/01/17 01:40:13;;;;;;;39.67;21.70;;;;;;;;;;5105969;28;20475;-69
2021/01/17 01:42:43;;;;;;;49.00;24.63;;;;;;;;;;5105910;27;20476;-68
2021/01/17 01:45:10;;;;;;;44.10;22.73;;;;;;;;;;5113059;28;20451;-69
2021/01/17 01:47:38;;;;;;;44.17;23.57;;;;;;;;;;5120748;27;20446;-69
2021/01/17 01:50:05;;;;;;;47.67;22.70;;;;;;;;;;5107934;27;20511;-69
2021/01/17 01:52:32;;;;;;;48.77;24.03;;;;;;;;;;5107163;28;20451;-68
2021/01/17 01:54:59;;;;;;;44.70;22.03;;;;;;;;;;5111282;28;20899;-68
2021/01/17 01:57:26;;;;;;;48.20;25.10;;;;;;;;;;5120206;27;20448;-69
2021/01/17 01:59:54;;;;;;;43.93;22.30;;;;;;;;;;5108145;28;20463;-69
2021/01/17 02:02:21;;;;;;;51.90;24.47;;;;;;;;;;5108937;28;20506;-69
2021/01/17 02:04:47;;;;;;;54.00;24.07;;;;;;;;;;5105676;28;20448;-69
2021/01/17 02:07:32;;;;;;;45.20;24.07;;;;;;;;;;5111383;27;20560;-68
2021/01/17 02:09:59;;;;;;;46.13;24.40;;;;;;;;;;5101511;27;20466;-69
2021/01/17 02:12:29;;;;;;;48.50;24.23;;;;;;;;;;5109745;28;20455;-69
2021/01/17 02:15:00;;;;;;;45.60;22.33;;;;;;;;;;5104135;28;20471;-69
2021/01/17 02:17:28;;;;;;;45.53;23.23;;;;;;;;;;5116116;27;20453;-69
2021/01/17 02:20:11;;;;;;;41.53;23.00;;;;;;;;;;5111794;28;20475;-68
2021/01/17 02:22:44;;;;;;;43.27;21.40;;;;;;;;;;5113184;27;20466;-69
2021/01/17 02:25:12;;;;;;;53.00;23.03;;;;;;;;;;5104301;27;20486;-69
2021/01/17 02:27:39;;;;;;;45.27;24.20;;;;;;;;;;5115897;27;20451;-69
2021/01/17 02:30:07;;;;;;;41.37;22.43;;;;;;;;;;5100689;27;20463;-69
2021/01/17 02:32:35;;;;;;;44.73;21.90;;;;;;;;;;5100794;28;20863;-69
2021/01/17 02:35:02;;;;;;;52.20;26.70;;;;;;;;;;5113349;27;20451;-69
2021/01/17 02:37:30;;;;;;;44.00;23.20;;;;;;;;;;5111407;27;20459;-69
2021/01/17 02:40:00;;;;;;;45.27;21.73;;;;;;;;;;5105033;28;20471;-69
2021/01/17 02:42:28;;;;;;;45.10;25.70;;;;;;;;;;5104926;27;20475;-69
2021/01/17 02:44:55;;;;;;;43.07;22.83;;;;;;;;;;5107365;27;20459;-69
2021/01/17 02:47:21;;;;;;;44.20;23.33;;;;;;;;;;5119478;27;20451;-69
2021/01/17 02:49:48;;;;;;;44.40;22.90;;;;;;;;;;5109159;28;20474;-69
2021/01/17 02:52:15;;;;;;;45.40;23.80;;;;;;;;;;5116889;27;20455;-69
2021/01/17 02:54:42;;;;;;;54.17;23.37;;;;;;;;;;5114127;27;20825;-69
2021/01/17 02:57:09;;;;;;;48.07;23.50;;;;;;;;;;5104248;28;20459;-69
2021/01/17 02:59:42;;;;;;;50.47;24.60;;;;;;;;;;5105490;28;20472;-69
2021/01/17 03:02:09;;;;;;;41.50;20.93;;;;;;;;;;5101500;28;20483;-69
2021/01/17 03:04:40;;;;;;;43.23;24.30;;;;;;;;;;5109496;27;20455;-69
2021/01/17 03:07:07;;;;;;;47.30;22.97;;;;;;;;;;5104021;28;20448;-69
2021/01/17 03:09:34;;;;;;;41.00;23.13;;;;;;;;;;5107171;28;20463;-69
2021/01/17 03:12:03;;;;;;;49.60;22.47;;;;;;;;;;5107725;27;20467;-69
2021/01/17 03:14:31;;;;;;;43.23;23.70;;;;;;;;;;5099727;27;20453;-69
2021/01/17 03:16:58;;;;;;;49.07;23.30;;;;;;;;;;5106138;27;20435;-68
2021/01/17 03:19:25;;;;;;;57.57;25.93;;;;;;;;;;5103635;28;20838;-69
2021/01/17 03:21:51;;;;;;;43.97;23.90;;;;;;;;;;5108038;27;20459;-69
2021/01/17 03:24:18;;;;;;;48.70;24.10;;;;;;;;;;5108716;27;20447;-69
2021/01/17 03:26:44;;;;;;;50.53;24.00;;;;;;;;;;5107413;28;20890;-68
2021/01/17 03:29:11;;;;;;;45.90;23.20;;;;;;;;;;5109494;27;20483;-69
2021/01/17 03:31:38;;;;;;;43.60;21.57;;;;;;;;;;5099074;28;20967;-69
2021/01/17 03:34:05;;;;;;;44.90;21.87;;;;;;;;;;5108009;27;20444;-70
2021/01/17 03:36:32;;;;;;;49.07;24.93;;;;;;;;;;5105247;27;20471;-69
2021/01/17 03:38:58;;;;;;;45.93;21.67;;;;;;;;;;5101806;28;20491;-69
2021/01/17 03:41:25;;;;;;;51.50;25.07;;;;;;;;;;5098071;28;20817;-69
2021/01/17 03:43:52;;;;;;;45.20;23.77;;;;;;;;;;5097735;28;20562;-70
2021/01/17 03:46:18;;;;;;;50.90;23.90;;;;;;;;;;5100681;27;20461;-70
2021/01/17 03:48:45;;;;;;;46.00;24.00;;;;;;;;;;5106686;28;20444;-69
2021/01/17 03:51:13;;;;;;;47.20;25.33;;;;;;;;;;5108501;27;20469;-70
2021/01/17 03:53:39;;;;;;;42.83;20.47;;;;;;;;;;5114349;27;20802;-69
2021/01/17 03:56:06;;;;;;;38.00;20.23;;;;;;;;;;5108006;28;21075;-69
2021/01/17 03:58:33;;;;;;;52.93;24.30;;;;;;;;;;5112165;28;20466;-69
2021/01/17 04:00:59;;;;;;;54.60;24.80;;;;;;;;;;5106400;28;20987;-69
2021/01/17 04:03:26;;;;;;;49.87;25.50;;;;;;;;;;5108346;27;20475;-69
2021/01/17 04:05:53;;;;;;;43.57;23.77;;;;;;;;;;5109325;27;20470;-69
2021/01/17 04:08:20;;;;;;;45.23;22.93;;;;;;;;;;5107460;27;20960;-69
2021/01/17 04:10:47;;;;;;;48.83;22.80;;;;;;;;;;5115633;27;20471;-69
2021/01/17 04:13:13;;;;;;;44.20;26.47;;;;;;;;;;5100042;28;20444;-69
2021/01/17 04:15:40;;;;;;;48.27;22.70;;;;;;;;;;5103274;28;20443;-69
2021/01/17 04:18:07;;;;;;;46.00;23.10;;;;;;;;;;5106931;28;20445;-69
2021/01/17 04:20:33;;;;;;;54.13;24.80;;;;;;;;;;5108792;28;20471;-69
2021/01/17 04:23:01;;;;;;;45.30;22.30;;;;;;;;;;5116851;27;20481;-69
2021/01/17 04:25:29;;;;;;;44.90;21.87;;;;;;;;;;5107708;27;20448;-69
2021/01/17 04:27:56;;;;;;;46.83;23.20;;;;;;;;;;5105558;27;20529;-69
2021/01/17 04:30:23;;;;;;;47.80;24.23;;;;;;;;;;5105895;27;20521;-69
2021/01/17 04:32:49;;;;;;;47.57;22.50;;;;;;;;;;5114054;27;20456;-69
2021/01/17 04:35:16;;;;;;;42.70;22.90;;;;;;;;;;5104106;28;20498;-69
2021/01/17 04:37:43;;;;;;;43.73;21.83;;;;;;;;;;5106839;27;20455;-69
2021/01/17 04:40:10;;;;;;;46.23;23.33;;;;;;;;;;5108139;28;20475;-69
2021/01/17 04:42:39;;;;;;;48.10;20.83;;;;;;;;;;5115413;27;20475;-69
2021/01/17 04:45:07;;;;;;;40.67;20.60;;;;;;;;;;5110829;28;20475;-69
2021/01/17 04:47:35;;;;;;;46.83;22.30;;;;;;;;;;5108045;28;21170;-69
2021/01/17 04:50:02;;;;;;;46.23;21.87;;;;;;;;;;5108809;28;20588;-69
2021/01/17 04:52:29;;;;;;;54.10;24.03;;;;;;;;;;5116904;27;20511;-69
2021/01/17 04:54:58;;;;;;;46.20;23.50;;;;;;;;;;5111671;28;20977;-69
2021/01/17 04:57:30;;;;;;;51.10;23.83;;;;;;;;;;5107451;28;20463;-70
2021/01/17 05:00:05;;;;;;;40.07;21.90;;;;;;;;;;5106020;28;20470;-69
2021/01/17 05:02:33;;;;;;;45.97;22.07;;;;;;;;;;5102149;27;20482;-69
2021/01/17 05:05:21;;;;;;;40.37;20.83;;;;;;;;;;5105014;28;20482;-69
2021/01/17 05:07:52;;;;;;;40.77;20.73;;;;;;;;;;5106849;28;20443;-69
2021/01/17 05:10:36;;;;;;;43.57;21.97;;;;;;;;;;5104659;27;20483;-69
2021/01/17 05:13:10;;;;;;;44.90;21.77;;;;;;;;;;5107555;28;20985;-69
2021/01/17 05:15:39;;;;;;;44.13;22.23;;;;;;;;;;5110778;28;20819;-69
2021/01/17 05:18:06;;;;;;;42.00;21.13;;;;;;;;;;5109874;28;20466;-69
2021/01/17 05:20:33;;;;;;;39.60;21.70;;;;;;;;;;5103494;28;20463;-69
2021/01/17 05:23:00;;;;;;;43.23;20.50;;;;;;;;;;5106724;28;20583;-68
2021/01/17 05:25:27;;;;;;;46.90;21.70;;;;;;;;;;5110079;28;20452;-69
2021/01/17 05:27:54;;;;;;;43.47;23.90;;;;;;;;;;5101236;28;20466;-69
2021/01/17 05:30:21;;;;;;;43.20;24.20;;;;;;;;;;5099638;28;20464;-69
2021/01/17 05:32:51;;;;;;;37.10;18.70;;;;;;;;;;5098424;28;20440;-69
2021/01/17 05:35:19;;;;;;;42.10;21.63;;;;;;;;;;5106210;28;20516;-69
2021/01/17 05:37:49;;;;;;;44.13;22.83;;;;;;;;;;5104615;28;20512;-69
2021/01/17 05:40:16;;;;;;;46.20;21.07;;;;;;;;;;5099943;28;20479;-69
2021/01/17 05:42:44;;;;;;;41.27;20.10;;;;;;;;;;5100670;28;20489;-69
2021/01/17 05:45:11;;;;;;;42.37;22.10;;;;;;;;;;5102949;28;20462;-69
2021/01/17 05:47:38;;;;;;;47.13;22.97;;;;;;;;;;5103907;28;20447;-69
2021/01/17 05:50:07;;;;;;;44.30;22.50;;;;;;;;;;5108231;28;20463;-71
2021/01/17 05:52:34;;;;;;;39.80;22.47;;;;;;;;;;5100336;28;20451;-69
2021/01/17 05:55:01;;;;;;;47.03;22.43;;;;;;;;;;5105879;28;20455;-69
2021/01/17 05:57:27;;;;;;;43.97;21.77;;;;;;;;;;5099855;28;21025;-69
2021/01/17 05:59:54;;;;;;;45.53;23.33;;;;;;;;;;5116926;28;20921;-69
2021/01/17 06:02:21;;;;;;;41.73;22.60;;;;;;;;;;5103470;28;20478;-69
2021/01/17 06:04:49;;;;;;;43.07;22.87;;;;;;;;;;5102813;28;20871;-70
2021/01/17 06:07:17;;;;;;;46.60;23.13;;;;;;;;;;5105093;28;20457;-69
2021/01/17 06:09:44;;;;;;;41.63;21.50;;;;;;;;;;5102093;28;20458;-70
2021/01/17 06:12:11;;;;;;;51.00;23.70;;;;;;;;;;5096061;28;20456;-69
2021/01/17 06:14:38;;;;;;;46.07;22.73;;;;;;;;;;5101394;28;20789;-68
2021/01/17 06:17:05;;;;;;;49.97;23.50;;;;;;;;;;5104942;28;20436;-70
2021/01/17 06:19:35;;;;;;;43.73;22.30;;;;;;;;;;5105469;28;20474;-69
2021/01/17 06:22:03;;;;;;;46.37;21.80;;;;;;;;;;5104869;28;20459;-70
2021/01/17 06:24:35;;;;;;;52.70;24.03;;;;;;;;;;5106858;28;20458;-69
2021/01/17 06:27:02;;;;;;;52.77;23.73;;;;;;;;;;5104557;28;20455;-70
2021/01/17 06:29:39;;;;;;;46.70;22.90;;;;;;;;;;5099485;28;20467;-69
2021/01/17 06:32:16;;;;;;;43.67;22.03;;;;;;;;;;5110072;28;21335;-70
2021/01/17 06:34:46;;;;;;;41.13;20.63;;;;;;;;;;5100357;28;20448;-69
2021/01/17 06:37:14;;;;;;;42.17;21.20;;;;;;;;;;5106681;28;20455;-70
2021/01/17 06:39:48;;;;;;;43.23;22.73;;;;;;;;;;5115870;27;20471;-70
2021/01/17 06:42:16;;;;;;;46.93;23.10;;;;;;;;;;5106599;28;20858;-69
2021/01/17 06:44:43;;;;;;;42.47;21.00;;;;;;;;;;5107555;28;20440;-69
2021/01/17 06:47:20;;;;;;;43.77;21.80;;;;;;;;;;5107473;28;20451;-69
2021/01/17 06:49:47;;;;;;;43.30;21.33;;;;;;;;;;5105255;28;20462;-70
2021/01/17 06:52:16;;;;;;;38.03;20.57;;;;;;;;;;5112407;27;20509;-69
2021/01/17 06:54:43;;;;;;;35.27;19.80;;;;;;;;;;5098732;28;20467;-70
2021/01/17 06:57:11;;;;;;;50.23;24.83;;;;;;;;;;5112125;27;20460;-70
2021/01/17 06:59:39;;;;;;;37.50;20.90;;;;;;;;;;5118368;27;20470;-69
2021/01/17 07:02:39;;;;;;;40.67;21.77;;;;;;;;;;5106463;27;20635;-69
2021/01/17 07:05:23;;;;;;;39.40;20.70;;;;;;;;;;5103226;28;20470;-70
2021/01/17 07:08:03;;;;;;;42.43;21.10;;;;;;;;;;5106258;27;20498;-70
2021/01/17 07:10:33;;;;;;;45.30;23.33;;;;;;;;;;5110485;28;21157;-70
2021/01/17 07:13:03;;;;;;;41.30;21.53;;;;;;;;;;5105260;28;20443;-69
2021/01/17 07:15:30;;;;;;;42.60;22.00;;;;;;;;;;5106954;27;20454;-70
2021/01/17 07:18:00;;;;;;;43.97;22.93;;;;;;;;;;5101417;28;20456;-69
2021/01/17 07:20:29;;;;;;;38.57;21.07;;;;;;;;;;5101509;28;20983;-70
2021/01/17 07:22:57;;;;;;;42.93;21.27;;;;;;;;;;5104290;27;20851;-70
2021/01/17 07:25:25;;;;;;;40.97;21.40;;;;;;;;;;5106476;27;20451;-70
2021/01/17 07:28:04;;;;;;;43.10;20.97;;;;;;;;;;5113055;27;20463;-70
2021/01/17 07:30:37;;;;;;;37.50;20.87;;;;;;;;;;5105284;28;20455;-70
2021/01/17 07:33:06;;;;;;;37.63;21.80;;;;;;;;;;5109311;27;20811;-70
2021/01/17 07:35:36;;;;;;;55.90;25.20;;;;;;;;;;5098242;27;20440;-70
2021/01/17 07:38:09;;;;;;;37.93;21.20;;;;;;;;;;5112578;27;20443;-70
2021/01/17 07:40:51;;;;;;;40.80;21.07;;;;;;;;;;5107409;27;20982;-70
2021/01/17 07:43:29;;;;;;;41.37;20.77;;;;;;;;;;5104339;28;20503;-70
2021/01/17 07:45:56;;;;;;;44.87;22.20;;;;;;;;;;5105521;27;20467;-71
2021/01/17 07:48:23;;;;;;;42.50;22.83;;;;;;;;;;5106278;27;20493;-70
2021/01/17 07:50:51;;;;;;;44.67;22.80;;;;;;;;;;5103858;27;20519;-70
2021/01/17 07:53:31;;;;;;;37.47;19.60;;;;;;;;;;5103423;28;20439;-71
2021/01/17 07:56:05;;;;;;;46.03;22.33;;;;;;;;;;5102371;28;20443;-70
2021/01/17 07:58:33;;;;;;;37.43;21.90;;;;;;;;;;5106630;27;20449;-70
2021/01/17 08:01:00;;;;;;;40.90;21.57;;;;;;;;;;5111899;27;20486;-70
2021/01/17 08:03:27;;;;;;;43.70;20.90;;;;;;;;;;5108351;27;20479;-71
2021/01/17 08:05:55;;;;;;;38.93;21.80;;;;;;;;;;5101640;27;20836;-70
2021/01/17 08:08:44;;;;;;;42.20;22.13;;;;;;;;;;5112872;27;20443;-70
2021/01/17 08:11:10;;;;;;;39.40;23.27;;;;;;;;;;5101526;27;20474;-70
2021/01/17 08:13:42;;;;;;;37.83;20.47;;;;;;;;;;5114503;27;20936;-70
2021/01/17 08:16:09;;;;;;;44.27;20.87;;;;;;;;;;5106787;27;20447;-70
2021/01/17 08:18:36;;;;;;;37.33;21.53;;;;;;;;;;5109350;27;20458;-70
2021/01/17 08:21:17;;;;;;;41.80;23.37;;;;;;;;;;5109111;27;20463;-70
2021/01/17 08:23:59;;;;;;;47.73;21.40;;;;;;;;;;5106651;27;20486;-70
2021/01/17 08:26:40;;;;;;;44.60;21.63;;;;;;;;;;5104727;27;20465;-71
2021/01/17 08:29:08;;;;;;;40.07;22.50;;;;;;;;;;5106903;27;20491;-70
2021/01/17 08:31:35;;;;;;;43.83;23.37;;;;;;;;;;5107770;27;20798;-70
2021/01/17 08:34:13;;;;;;;45.23;22.63;;;;;;;;;;5103988;27;21128;-70
2021/01/17 08:36:41;;;;;;;36.43;20.47;;;;;;;;;;5105249;27;20508;-70
2021/01/17 08:39:08;;;;;;;40.10;22.07;;;;;;;;;;5105738;27;20451;-70
2021/01/17 08:41:35;;;;;;;38.43;21.97;;;;;;;;;;5096401;27;20990;-70
2021/01/17 08:44:02;;;;;;;39.07;22.20;;;;;;;;;;5105599;27;20476;-70
2021/01/17 08:46:37;;;;;;;36.07;21.93;;;;;;;;;;5108073;28;20955;-69
2021/01/17 08:49:04;;;;;;;47.50;22.87;;;;;;;;;;5103846;27;20467;-69
2021/01/17 08:51:31;;;;;;;41.97;19.87;;;;;;;;;;5104616;27;20495;-70
2021/01/17 08:53:57;;;;;;;36.47;20.90;;;;;;;;;;5112462;27;20434;-70
2021/01/17 08:56:25;;;;;;;34.90;21.23;;;;;;;;;;5104582;27;21023;-71
2021/01/17 08:58:52;;;;;;;42.03;22.20;;;;;;;;;;5110446;27;20882;-70
2021/01/17 09:01:19;;;;;;;37.83;20.53;;;;;;;;;;5105589;27;20444;-70
2021/01/17 09:03:54;;;;;;;37.67;20.43;;;;;;;;;;5111203;27;20478;-70
2021/01/17 09:06:38;;;;;;;44.67;20.00;;;;;;;;;;5101435;28;20451;-70
2021/01/17 09:09:06;;;;;;;33.13;19.50;;;;;;;;;;5111511;27;20452;-70
2021/01/17 09:11:37;;;;;;;38.37;21.13;;;;;;;;;;5101354;28;20459;-70
2021/01/17 09:14:14;;;;;;;34.43;20.30;;;;;;;;;;5099021;28;20517;-68
2021/01/17 09:16:45;;;;;;;36.97;19.73;;;;;;;;;;5107347;28;20531;-70
2021/01/17 09:19:13;;;;;;;39.03;20.87;;;;;;;;;;5104992;28;21050;-68
2021/01/17 09:21:40;;;;;;;36.43;20.53;;;;;;;;;;5103382;28;20975;-70
2021/01/17 09:24:07;;;;;;;38.27;20.80;;;;;;;;;;5095019;28;20476;-70
2021/01/17 09:26:34;;;;;;;35.17;20.03;;;;;;;;;;5098673;28;20598;-70
2021/01/17 09:29:01;;;;;;;41.47;21.43;;;;;;;;;;5104268;28;20836;-70
2021/01/17 09:31:29;;;;;;;35.87;20.80;;;;;;;;;;5107320;28;20452;-69
2021/01/17 09:33:56;;;;;;;33.97;20.40;;;;;;;;;;5107146;28;20445;-69
2021/01/17 09:36:26;;;;;;;35.03;19.90;;;;;;;;;;5115620;28;20450;-69
2021/01/17 09:38:53;;;;;;;39.70;21.53;;;;;;;;;;5111206;28;20461;-71
2021/01/17 09:41:23;;;;;;;36.80;21.63;;;;;;;;;;5107323;28;20450;-69
2021/01/17 09:43:50;;;;;;;29.33;18.50;;;;;;;;;;5101833;28;20497;-69
2021/01/17 09:46:20;;;;;;;38.20;21.93;;;;;;;;;;5104899;28;20440;-69
2021/01/17 09:48:55;;;;;;;36.97;19.20;;;;;;;;;;5113075;28;20532;-68
2021/01/17 09:51:22;;;;;;;33.73;20.00;;;;;;;;;;5105040;28;20450;-70
2021/01/17 09:53:51;;;;;;;41.77;22.07;;;;;;;;;;5105440;28;20486;-70
2021/01/17 09:56:18;;;;;;;33.97;22.23;;;;;;;;;;5105889;28;21261;-71
2021/01/17 09:58:45;;;;;;;37.53;21.70;;;;;;;;;;5104171;28;20547;-70
2021/01/17 10:01:16;;;;;;;33.83;20.13;;;;;;;;;;5104348;28;20542;-69
2021/01/17 10:03:43;;;;;;;36.67;21.40;;;;;;;;;;5103748;28;20471;-68
2021/01/17 10:06:09;;;;;;;38.03;19.90;;;;;;;;;;5100683;27;20447;-71
2021/01/17 10:08:36;;;;;;;31.03;21.03;;;;;;;;;;5103065;27;20444;-69
2021/01/17 10:11:04;;;;;;;44.20;21.83;;;;;;;;;;5106232;27;20713;-72
2021/01/17 10:13:30;;;;;;;39.83;23.20;;;;;;;;;;5111965;28;20458;-70
2021/01/17 10:15:57;;;;;;;32.00;21.70;;;;;;;;;;5099426;28;20201;-70
2021/01/17 10:18:24;;;;;;;33.23;19.33;;;;;;;;;;5106565;27;20518;-71
2021/01/17 10:20:53;;;;;;;30.57;19.50;;;;;;;;;;5105815;28;20479;-70
2021/01/17 10:23:20;;;;;;;37.93;20.90;;;;;;;;;;5102679;27;20475;-70
2021/01/17 10:25:47;;;;;;;48.27;24.93;;;;;;;;;;5102562;27;20794;-70
2021/01/17 10:28:16;;;;;;;48.13;22.47;;;;;;;;;;5104394;27;20470;-70
2021/01/17 10:30:43;;;;;;;33.43;18.80;;;;;;;;;;5101974;28;20482;-70
2021/01/17 10:33:10;;;;;;;32.23;19.80;;;;;;;;;;5104384;27;20443;-70
2021/01/17 10:35:37;;;;;;;35.00;20.50;;;;;;;;;;5103906;27;20462;-71
2021/01/17 10:38:05;;;;;;;37.70;20.50;;;;;;;;;;5106444;27;20454;-71
2021/01/17 10:40:32;;;;;;;39.90;21.47;;;;;;;;;;5105137;28;20608;-70
2021/01/17 10:43:01;;;;;;;35.10;20.50;;;;;;;;;;5107394;27;20483;-70
2021/01/17 10:45:28;;;;;;;35.63;21.33;;;;;;;;;;5108789;28;20447;-71
2021/01/17 10:47:58;;;;;;;31.80;20.33;;;;;;;;;;5109016;27;20822;-69
2021/01/17 10:50:25;;;;;;;38.27;22.33;;;;;;;;;;5104346;27;20566;-69
2021/01/17 10:52:59;;;;;;;30.93;18.53;;;;;;;;;;5114346;27;20522;-69
2021/01/17 10:55:29;;;;;;;36.33;21.20;;;;;;;;;;5110394;28;20443;-69
2021/01/17 10:57:56;;;;;;;30.13;19.37;;;;;;;;;;5095125;27;20468;-69
2021/01/17 11:00:23;;;;;;;34.67;19.20;;;;;;;;;;5098700;28;20459;-70
2021/01/17 11:03:01;;;;;;;31.20;17.93;;;;;;;;;;5108397;28;21826;-69
2021/01/17 11:05:27;;;;;;;30.83;18.37;;;;;;;;;;5105983;27;20451;-70
2021/01/17 11:07:54;;;;;;;34.50;18.30;;;;;;;;;;5104258;27;20806;-69
2021/01/17 11:10:21;;;;;;;32.50;18.27;;;;;;;;;;5107736;27;20464;-69
2021/01/17 11:12:49;;;;;;;30.23;19.70;;;;;;;;;;5106496;28;20465;-69
2021/01/17 11:15:16;;;;;;;32.93;19.10;;;;;;;;;;5105618;28;21024;-69
2021/01/17 11:17:43;;;;;;;35.87;20.13;;;;;;;;;;5103448;27;20444;-69
2021/01/17 11:20:12;;;;;;;32.83;20.00;;;;;;;;;;5094370;27;20529;-69
2021/01/17 11:22:39;;;;;;;30.57;19.30;;;;;;;;;;5107601;28;20466;-69
2021/01/17 11:25:17;;;;;;;29.90;17.73;;;;;;;;;;5103186;27;20452;-70
2021/01/17 11:27:46;;;;;;;30.37;18.47;;;;;;;;;;5096637;27;20459;-69
2021/01/17 11:30:14;;;;;;;33.23;18.60;;;;;;;;;;5100192;28;20479;-69
2021/01/17 11:32:40;;;;;;;28.67;17.83;;;;;;;;;;5099449;27;20486;-69
2021/01/17 11:35:22;;;;;;;30.80;19.60;;;;;;;;;;5105770;27;20539;-69
2021/01/17 11:37:49;;;;;;;26.67;16.90;;;;;;;;;;5101303;28;20480;-68
2021/01/17 11:40:18;;;;;;;31.07;18.20;;;;;;;;;;5107015;27;20475;-69
2021/01/17 11:42:45;;;;;;;31.57;17.97;;;;;;;;;;5105757;27;20977;-70
2021/01/17 11:45:16;;;;;;;33.20;18.73;;;;;;;;;;5110600;27;20448;-70
2021/01/17 11:47:43;;;;;;;31.90;20.20;;;;;;;;;;5100488;28;20470;-70
2021/01/17 11:50:16;;;;;;;35.10;21.00;;;;;;;;;;5099927;28;20479;-71
2021/01/17 11:52:43;;;;;;;30.30;19.37;;;;;;;;;;5107652;27;20498;-70
2021/01/17 11:55:12;;;;;;;36.27;19.80;;;;;;;;;;5102561;28;20458;-70
2021/01/17 11:57:38;;;;;;;33.50;20.00;;;;;;;;;;5113260;27;20463;-70
2021/01/17 12:00:06;;;;;;;33.63;19.20;;;;;;;;;;5098179;28;20843;-70
2021/01/17 12:02:39;;;;;;;35.57;20.10;;;;;;;;;;5102579;28;20532;-70
2021/01/17 12:05:07;;;;;;;33.37;18.90;;;;;;;;;;5098621;27;20840;-70
2021/01/17 12:07:33;;;;;;;30.87;19.00;;;;;;;;;;5101567;27;20509;-70
2021/01/17 12:10:07;;;;;;;35.70;18.90;;;;;;;;;;5106039;28;20463;-70
2021/01/17 12:12:35;;;;;;;32.70;19.70;;;;;;;;;;5101194;28;20459;-70
2021/01/17 12:15:02;;;;;;;34.27;19.53;;;;;;;;;;5105524;27;20450;-69
2021/01/17 12:17:29;;;;;;;35.27;20.53;;;;;;;;;;5097826;28;20444;-71
2021/01/17 12:19:55;;;;;;;33.83;18.40;;;;;;;;;;5097596;27;20466;-70
2021/01/17 12:22:22;;;;;;;27.50;17.60;;;;;;;;;;5108369;28;20454;-70
2021/01/17 12:24:49;;;;;;;36.40;21.37;;;;;;;;;;5101629;28;20575;-68
2021/01/17 12:27:15;;;;;;;42.10;22.80;;;;;;;;;;5102281;28;20451;-69
2021/01/17 12:29:43;;;;;;;33.83;21.83;;;;;;;;;;5110048;27;20467;-68
2021/01/17 12:32:09;;;;;;;35.70;21.50;;;;;;;;;;5101585;28;20459;-69
2021/01/17 12:34:36;;;;;;;33.83;21.13;;;;;;;;;;5102860;27;20445;-69
2021/01/17 12:37:03;;;;;;;37.13;21.10;;;;;;;;;;5103010;28;20830;-70
2021/01/17 12:39:29;;;;;;;34.60;21.73;;;;;;;;;;5101498;28;20475;-70
2021/01/17 12:41:58;;;;;;;35.17;20.07;;;;;;;;;;5097815;28;20447;-70
2021/01/17 12:44:24;;;;;;;35.97;22.17;;;;;;;;;;5110106;27;20862;-70
2021/01/17 12:46:52;;;;;;;37.60;24.17;;;;;;;;;;5101420;28;20464;-70
2021/01/17 12:49:19;;;;;;;39.40;21.70;;;;;;;;;;5106980;27;20471;-70
2021/01/17 12:51:46;;;;;;;43.03;25.43;;;;;;;;;;5096968;27;20455;-70
2021/01/17 12:54:12;;;;;;;34.90;23.00;;;;;;;;;;5102184;27;20451;-69
2021/01/17 12:56:39;;;;;;;40.90;23.23;;;;;;;;;;5094412;27;20463;-70
2021/01/17 12:59:07;;;;;;;44.30;23.93;;;;;;;;;;5096188;27;20475;-69
2021/01/17 13:01:34;;;;;;;38.73;21.10;;;;;;;;;;5107022;27;20450;-69
2021/01/17 13:04:01;;;;;;;41.33;21.87;;;;;;;;;;5097956;28;20476;-69
2021/01/17 13:06:28;;;;;;;36.23;21.77;;;;;;;;;;5105191;27;20448;-69
2021/01/17 13:08:55;;;;;;;37.60;21.30;;;;;;;;;;5102403;28;20463;-69
2021/01/17 13:11:21;;;;;;;36.47;20.50;;;;;;;;;;5105803;27;20459;-70
2021/01/17 13:13:48;;;;;;;36.73;20.70;;;;;;;;;;5093426;28;20528;-69
2021/01/17 13:16:16;;;;;;;42.07;22.87;;;;;;;;;;5102413;28;20447;-69
2021/01/17 13:18:43;;;;;;;33.10;21.30;;;;;;;;;;5099599;28;20458;-69
2021/01/17 13:21:11;;;;;;;35.67;22.17;;;;;;;;;;5099068;28;20467;-69
2021/01/17 13:23:37;;;;;;;37.50;22.43;;;;;;;;;;5103552;28;21020;-69
2021/01/17 13:26:05;;;;;;;37.90;20.83;;;;;;;;;;5104044;28;21422;-69
2021/01/17 13:28:32;;;;;;;41.60;22.03;;;;;;;;;;5110555;28;20450;-69
2021/01/17 13:30:59;;;;;;;35.23;21.47;;;;;;;;;;5097763;28;20478;-69
2021/01/17 13:33:25;;;;;;;39.27;21.70;;;;;;;;;;5107608;28;20435;-69
2021/01/17 13:35:53;;;;;;;37.30;22.07;;;;;;;;;;5098802;28;20440;-69
2021/01/17 13:38:21;;;;;;;38.60;23.33;;;;;;;;;;5107345;27;20485;-70
2021/01/17 13:40:48;;;;;;;35.40;20.40;;;;;;;;;;5110406;27;20576;-69
2021/01/17 13:43:15;;;;;;;36.47;22.00;;;;;;;;;;5113328;27;20486;-69
2021/01/17 13:45:42;;;;;;;34.80;20.73;;;;;;;;;;5114946;27;20526;-69
2021/01/17 13:48:09;;;;;;;32.47;20.20;;;;;;;;;;5112570;27;20954;-69
2021/01/17 13:50:36;;;;;;;32.30;19.97;;;;;;;;;;5105391;27;20502;-68
2021/01/17 13:53:03;;;;;;;30.43;18.47;;;;;;;;;;5110088;27;20439;-69
2021/01/17 13:55:31;;;;;;;35.57;21.07;;;;;;;;;;5099182;28;20444;-69
2021/01/17 13:57:58;;;;;;;28.43;19.20;;;;;;;;;;5098763;27;20459;-69
2021/01/17 14:00:26;;;;;;;27.20;18.57;;;;;;;;;;5106930;28;20837;-69
2021/01/17 14:02:53;;;;;;;29.17;18.30;;;;;;;;;;5108699;27;21142;-69
2021/01/17 14:05:21;;;;;;;29.87;19.10;;;;;;;;;;5104469;27;20470;-69
2021/01/17 14:07:51;;;;;;;31.50;19.67;;;;;;;;;;5101381;28;20624;-69
2021/01/17 14:10:17;;;;;;;28.50;18.57;;;;;;;;;;5108357;27;20485;-69
2021/01/17 14:12:45;;;;;;;27.60;16.97;;;;;;;;;;5103529;28;20469;-70
2021/01/17 14:15:13;;;;;;;31.37;19.07;;;;;;;;;;5103255;27;20551;-70
2021/01/17 14:17:40;;;;;;;27.67;17.40;;;;;;;;;;5107669;27;20501;-70
2021/01/17 14:20:07;;;;;;;28.83;18.20;;;;;;;;;;5106843;27;20466;-71
2021/01/17 14:22:34;;;;;;;29.40;18.30;;;;;;;;;;5102308;28;20467;-71
2021/01/17 14:25:01;;;;;;;31.40;19.30;;;;;;;;;;5100464;28;20499;-71